sensor_id;sensor_type;location;lat;lon;timestamp;P1;durP1;ratioP1;P2;durP2;ratioP2
789;SDS011;378;48.844;9.156;2023-12-07T00:01:51;8.75;;;5.10;;
789;SDS011;378;48.844;9.156;2023-12-07T00:04:31;7.88;;;4.63;;
789;SDS011;378;48.844;9.156;2023-12-07T00:07:26;10.25;;;5.13;;
789;SDS011;378;48.844;9.156;2023-12-07T00:10:09;10.65;;;5.20;;
789;SDS011;378;48.844;9.156;2023-12-07T00:13:07;8.05;;;4.95;;
789;SDS011;378;48.844;9.156;2023-12-07T00:15:59;8.23;;;4.63;;
789;SDS011;378;48.844;9.156;2023-12-07T00:18:57;11.48;;;5.03;;
789;SDS011;378;48.844;9.156;2023-12-07T00:21:58;10.68;;;5.20;;
789;SDS011;378;48.844;9.156;2023-12-07T00:24:48;7.65;;;4.72;;
789;SDS011;378;48.844;9.156;2023-12-07T00:27:27;11.45;;;5.28;;
789;SDS011;378;48.844;9.156;2023-12-07T00:30:24;9.43;;;4.97;;
789;SDS011;378;48.844;9.156;2023-12-07T00:33:21;7.63;;;4.93;;
789;SDS011;378;48.844;9.156;2023-12-07T00:36:00;8.95;;;5.07;;
789;SDS011;378;48.844;9.156;2023-12-07T00:38:49;10.57;;;5.35;;
789;SDS011;378;48.844;9.156;2023-12-07T00:41:34;10.40;;;4.78;;
789;SDS011;378;48.844;9.156;2023-12-07T00:44:17;10.95;;;5.40;;
789;SDS011;378;48.844;9.156;2023-12-07T00:47:10;11.20;;;5.85;;
789;SDS011;378;48.844;9.156;2023-12-07T00:49:56;11.23;;;6.30;;
789;SDS011;378;48.844;9.156;2023-12-07T00:52:42;12.70;;;5.70;;
789;SDS011;378;48.844;9.156;2023-12-07T00:55:51;11.23;;;5.68;;
789;SDS011;378;48.844;9.156;2023-12-07T00:58:35;9.88;;;5.47;;
789;SDS011;378;48.844;9.156;2023-12-07T01:01:27;9.75;;;5.57;;
789;SDS011;378;48.844;9.156;2023-12-07T01:07:23;11.65;;;5.35;;
789;SDS011;378;48.844;9.156;2023-12-07T01:10:03;9.80;;;4.90;;
789;SDS011;378;48.844;9.156;2023-12-07T01:12:45;9.90;;;4.53;;
789;SDS011;378;48.844;9.156;2023-12-07T01:15:36;9.52;;;5.38;;
789;SDS011;378;48.844;9.156;2023-12-07T01:21:12;9.77;;;5.25;;
789;SDS011;378;48.844;9.156;2023-12-07T01:26:55;10.32;;;4.90;;
789;SDS011;378;48.844;9.156;2023-12-07T01:29:31;8.63;;;4.90;;
789;SDS011;378;48.844;9.156;2023-12-07T01:32:06;13.13;;;5.45;;
789;SDS011;378;48.844;9.156;2023-12-07T01:35:00;14.13;;;4.78;;
789;SDS011;378;48.844;9.156;2023-12-07T01:37:40;9.52;;;4.40;;
789;SDS011;378;48.844;9.156;2023-12-07T01:43:30;8.18;;;4.90;;
789;SDS011;378;48.844;9.156;2023-12-07T01:46:20;7.72;;;4.75;;
789;SDS011;378;48.844;9.156;2023-12-07T01:52:15;11.95;;;5.43;;
789;SDS011;378;48.844;9.156;2023-12-07T01:55:09;9.23;;;4.88;;
789;SDS011;378;48.844;9.156;2023-12-07T01:58:06;10.98;;;4.75;;
789;SDS011;378;48.844;9.156;2023-12-07T02:00:50;13.02;;;5.20;;
789;SDS011;378;48.844;9.156;2023-12-07T02:03:27;9.48;;;5.22;;
789;SDS011;378;48.844;9.156;2023-12-07T02:06:23;9.40;;;5.00;;
789;SDS011;378;48.844;9.156;2023-12-07T02:08:57;11.50;;;5.45;;
789;SDS011;378;48.844;9.156;2023-12-07T02:14:39;10.27;;;5.18;;
789;SDS011;378;48.844;9.156;2023-12-07T02:17:21;9.98;;;5.35;;
789;SDS011;378;48.844;9.156;2023-12-07T02:20:01;11.07;;;5.32;;
789;SDS011;378;48.844;9.156;2023-12-07T02:22:59;10.20;;;5.82;;
789;SDS011;378;48.844;9.156;2023-12-07T02:25:44;11.40;;;5.47;;
789;SDS011;378;48.844;9.156;2023-12-07T02:28:39;12.88;;;5.30;;
789;SDS011;378;48.844;9.156;2023-12-07T02:31:20;13.23;;;5.55;;
789;SDS011;378;48.844;9.156;2023-12-07T02:34:09;10.15;;;5.50;;
789;SDS011;378;48.844;9.156;2023-12-07T02:36:48;10.25;;;5.72;;
789;SDS011;378;48.844;9.156;2023-12-07T02:39:45;10.80;;;5.72;;
789;SDS011;378;48.844;9.156;2023-12-07T02:42:28;10.43;;;5.25;;
789;SDS011;378;48.844;9.156;2023-12-07T02:45:20;10.95;;;5.95;;
789;SDS011;378;48.844;9.156;2023-12-07T02:49:12;12.63;;;5.75;;
789;SDS011;378;48.844;9.156;2023-12-07T02:51:10;10.13;;;4.88;;
789;SDS011;378;48.844;9.156;2023-12-07T02:54:06;8.48;;;5.22;;
789;SDS011;378;48.844;9.156;2023-12-07T02:56:59;10.10;;;5.50;;
789;SDS011;378;48.844;9.156;2023-12-07T02:59:34;12.18;;;5.65;;
789;SDS011;378;48.844;9.156;2023-12-07T03:02:37;12.23;;;5.53;;
789;SDS011;378;48.844;9.156;2023-12-07T03:05:31;11.20;;;5.60;;
789;SDS011;378;48.844;9.156;2023-12-07T03:08:17;13.07;;;5.28;;
789;SDS011;378;48.844;9.156;2023-12-07T03:11:15;9.00;;;5.13;;
789;SDS011;378;48.844;9.156;2023-12-07T03:13:53;10.13;;;5.32;;
789;SDS011;378;48.844;9.156;2023-12-07T03:16:40;9.93;;;5.03;;
789;SDS011;378;48.844;9.156;2023-12-07T03:22:36;9.65;;;5.28;;
789;SDS011;378;48.844;9.156;2023-12-07T03:25:08;8.68;;;5.22;;
789;SDS011;378;48.844;9.156;2023-12-07T03:27:52;11.40;;;6.05;;
789;SDS011;378;48.844;9.156;2023-12-07T03:31:01;11.80;;;5.72;;
789;SDS011;378;48.844;9.156;2023-12-07T03:33:42;12.52;;;6.22;;
789;SDS011;378;48.844;9.156;2023-12-07T03:36:32;12.55;;;5.97;;
789;SDS011;378;48.844;9.156;2023-12-07T03:39:37;14.20;;;6.53;;
789;SDS011;378;48.844;9.156;2023-12-07T03:42:18;9.40;;;5.85;;
789;SDS011;378;48.844;9.156;2023-12-07T03:44:59;12.25;;;6.30;;
789;SDS011;378;48.844;9.156;2023-12-07T03:47:43;8.27;;;5.13;;
789;SDS011;378;48.844;9.156;2023-12-07T03:50:24;10.50;;;5.50;;
789;SDS011;378;48.844;9.156;2023-12-07T03:53:17;10.20;;;5.85;;
789;SDS011;378;48.844;9.156;2023-12-07T03:56:03;11.85;;;5.88;;
789;SDS011;378;48.844;9.156;2023-12-07T03:58:47;11.85;;;6.35;;
789;SDS011;378;48.844;9.156;2023-12-07T04:01:26;13.85;;;6.43;;
789;SDS011;378;48.844;9.156;2023-12-07T04:04:19;10.43;;;6.05;;
789;SDS011;378;48.844;9.156;2023-12-07T04:07:12;9.73;;;5.72;;
789;SDS011;378;48.844;9.156;2023-12-07T04:10:20;12.52;;;6.90;;
789;SDS011;378;48.844;9.156;2023-12-07T04:12:54;18.02;;;6.47;;
789;SDS011;378;48.844;9.156;2023-12-07T04:15:50;14.63;;;6.53;;
789;SDS011;378;48.844;9.156;2023-12-07T04:18:34;13.00;;;6.80;;
789;SDS011;378;48.844;9.156;2023-12-07T04:21:08;12.68;;;6.75;;
789;SDS011;378;48.844;9.156;2023-12-07T04:24:03;14.38;;;7.35;;
789;SDS011;378;48.844;9.156;2023-12-07T04:26:55;15.35;;;7.28;;
789;SDS011;378;48.844;9.156;2023-12-07T04:29:46;16.23;;;7.22;;
789;SDS011;378;48.844;9.156;2023-12-07T04:35:15;13.00;;;6.70;;
789;SDS011;378;48.844;9.156;2023-12-07T04:38:06;15.07;;;7.07;;
789;SDS011;378;48.844;9.156;2023-12-07T04:41:05;12.55;;;6.68;;
789;SDS011;378;48.844;9.156;2023-12-07T04:43:47;14.05;;;7.18;;
789;SDS011;378;48.844;9.156;2023-12-07T04:46:21;15.77;;;7.25;;
789;SDS011;378;48.844;9.156;2023-12-07T04:49:11;12.18;;;7.13;;
789;SDS011;378;48.844;9.156;2023-12-07T04:54:32;12.82;;;7.25;;
789;SDS011;378;48.844;9.156;2023-12-07T04:57:11;13.73;;;6.78;;
789;SDS011;378;48.844;9.156;2023-12-07T05:06:02;14.32;;;6.75;;
789;SDS011;378;48.844;9.156;2023-12-07T05:08:44;11.00;;;6.13;;
789;SDS011;378;48.844;9.156;2023-12-07T05:11:22;12.43;;;6.38;;
789;SDS011;378;48.844;9.156;2023-12-07T05:14:08;12.95;;;6.80;;
789;SDS011;378;48.844;9.156;2023-12-07T05:16:50;11.93;;;6.50;;
789;SDS011;378;48.844;9.156;2023-12-07T05:19:34;13.80;;;6.78;;
789;SDS011;378;48.844;9.156;2023-12-07T05:22:21;13.32;;;6.47;;
789;SDS011;378;48.844;9.156;2023-12-07T05:24:59;12.15;;;6.47;;
789;SDS011;378;48.844;9.156;2023-12-07T05:27:41;14.65;;;6.20;;
789;SDS011;378;48.844;9.156;2023-12-07T05:30:22;12.65;;;6.47;;
789;SDS011;378;48.844;9.156;2023-12-07T05:33:04;12.77;;;6.25;;
789;SDS011;378;48.844;9.156;2023-12-07T05:35:56;10.88;;;6.03;;
789;SDS011;378;48.844;9.156;2023-12-07T05:38:50;11.23;;;5.85;;
789;SDS011;378;48.844;9.156;2023-12-07T05:41:34;11.35;;;5.93;;
789;SDS011;378;48.844;9.156;2023-12-07T05:44:21;12.68;;;5.85;;
789;SDS011;378;48.844;9.156;2023-12-07T05:47:08;8.77;;;5.10;;
789;SDS011;378;48.844;9.156;2023-12-07T05:53:10;9.88;;;5.43;;
789;SDS011;378;48.844;9.156;2023-12-07T05:56:00;13.55;;;5.78;;
789;SDS011;378;48.844;9.156;2023-12-07T06:01:32;11.25;;;5.88;;
789;SDS011;378;48.844;9.156;2023-12-07T06:04:25;10.23;;;5.15;;
789;SDS011;378;48.844;9.156;2023-12-07T06:07:13;10.63;;;5.65;;
789;SDS011;378;48.844;9.156;2023-12-07T06:10:14;12.50;;;5.78;;
789;SDS011;378;48.844;9.156;2023-12-07T06:13:12;11.95;;;6.20;;
789;SDS011;378;48.844;9.156;2023-12-07T06:16:11;10.32;;;5.35;;
789;SDS011;378;48.844;9.156;2023-12-07T06:19:07;11.98;;;5.55;;
789;SDS011;378;48.844;9.156;2023-12-07T06:21:43;11.77;;;6.85;;
789;SDS011;378;48.844;9.156;2023-12-07T06:24:29;13.93;;;6.65;;
789;SDS011;378;48.844;9.156;2023-12-07T06:27:17;12.02;;;6.20;;
789;SDS011;378;48.844;9.156;2023-12-07T06:29:50;9.88;;;5.82;;
789;SDS011;378;48.844;9.156;2023-12-07T06:32:22;9.55;;;5.65;;
789;SDS011;378;48.844;9.156;2023-12-07T06:34:52;9.30;;;5.80;;
789;SDS011;378;48.844;9.156;2023-12-07T06:37:39;9.98;;;5.65;;
789;SDS011;378;48.844;9.156;2023-12-07T06:40:30;11.18;;;5.95;;
789;SDS011;378;48.844;9.156;2023-12-07T06:43:12;12.75;;;5.65;;
789;SDS011;378;48.844;9.156;2023-12-07T06:45:51;11.63;;;6.40;;
789;SDS011;378;48.844;9.156;2023-12-07T06:48:25;11.57;;;6.22;;
789;SDS011;378;48.844;9.156;2023-12-07T06:51:14;14.05;;;6.20;;
789;SDS011;378;48.844;9.156;2023-12-07T06:53:59;12.00;;;6.30;;
789;SDS011;378;48.844;9.156;2023-12-07T06:56:38;11.15;;;6.05;;
789;SDS011;378;48.844;9.156;2023-12-07T06:59:27;12.48;;;6.63;;
789;SDS011;378;48.844;9.156;2023-12-07T07:02:15;12.82;;;6.20;;
789;SDS011;378;48.844;9.156;2023-12-07T07:04:51;12.10;;;6.05;;
789;SDS011;378;48.844;9.156;2023-12-07T07:07:36;11.63;;;6.63;;
789;SDS011;378;48.844;9.156;2023-12-07T07:10:21;11.63;;;6.40;;
789;SDS011;378;48.844;9.156;2023-12-07T07:13:13;13.73;;;6.53;;
789;SDS011;378;48.844;9.156;2023-12-07T07:19:00;15.82;;;7.32;;
789;SDS011;378;48.844;9.156;2023-12-07T07:21:37;17.40;;;6.78;;
789;SDS011;378;48.844;9.156;2023-12-07T07:24:19;16.38;;;7.47;;
789;SDS011;378;48.844;9.156;2023-12-07T07:27:10;15.88;;;7.35;;
789;SDS011;378;48.844;9.156;2023-12-07T07:30:13;14.60;;;6.70;;
789;SDS011;378;48.844;9.156;2023-12-07T07:33:00;14.77;;;6.88;;
789;SDS011;378;48.844;9.156;2023-12-07T07:35:38;15.10;;;6.82;;
789;SDS011;378;48.844;9.156;2023-12-07T07:44:17;17.48;;;7.85;;
789;SDS011;378;48.844;9.156;2023-12-07T07:53:40;17.55;;;8.23;;
789;SDS011;378;48.844;9.156;2023-12-07T07:56:20;19.65;;;8.32;;
789;SDS011;378;48.844;9.156;2023-12-07T07:59:01;17.20;;;7.47;;
789;SDS011;378;48.844;9.156;2023-12-07T08:01:40;14.38;;;6.90;;
789;SDS011;378;48.844;9.156;2023-12-07T08:04:29;15.30;;;8.05;;
789;SDS011;378;48.844;9.156;2023-12-07T08:07:25;19.73;;;8.82;;
789;SDS011;378;48.844;9.156;2023-12-07T08:10:08;14.27;;;7.40;;
789;SDS011;378;48.844;9.156;2023-12-07T08:12:46;20.85;;;8.23;;
789;SDS011;378;48.844;9.156;2023-12-07T08:15:13;18.55;;;8.52;;
789;SDS011;378;48.844;9.156;2023-12-07T08:17:40;19.27;;;8.52;;
789;SDS011;378;48.844;9.156;2023-12-07T08:20:09;20.48;;;8.45;;
789;SDS011;378;48.844;9.156;2023-12-07T08:22:37;19.73;;;8.68;;
789;SDS011;378;48.844;9.156;2023-12-07T08:25:13;15.82;;;7.82;;
789;SDS011;378;48.844;9.156;2023-12-07T08:27:44;15.43;;;7.75;;
789;SDS011;378;48.844;9.156;2023-12-07T08:30:14;17.83;;;9.18;;
789;SDS011;378;48.844;9.156;2023-12-07T08:32:41;18.80;;;8.82;;
789;SDS011;378;48.844;9.156;2023-12-07T08:35:09;16.48;;;8.93;;
789;SDS011;378;48.844;9.156;2023-12-07T08:37:37;18.23;;;9.30;;
789;SDS011;378;48.844;9.156;2023-12-07T08:40:07;21.20;;;9.57;;
789;SDS011;378;48.844;9.156;2023-12-07T08:42:37;23.35;;;10.43;;
789;SDS011;378;48.844;9.156;2023-12-07T08:45:04;22.73;;;9.93;;
789;SDS011;378;48.844;9.156;2023-12-07T08:47:31;21.90;;;10.43;;
789;SDS011;378;48.844;9.156;2023-12-07T08:49:59;26.07;;;11.70;;
789;SDS011;378;48.844;9.156;2023-12-07T08:52:27;27.38;;;12.00;;
789;SDS011;378;48.844;9.156;2023-12-07T08:54:54;24.42;;;11.38;;
789;SDS011;378;48.844;9.156;2023-12-07T08:57:21;21.88;;;11.25;;
789;SDS011;378;48.844;9.156;2023-12-07T08:59:48;25.45;;;10.85;;
789;SDS011;378;48.844;9.156;2023-12-07T09:02:14;26.33;;;11.68;;
789;SDS011;378;48.844;9.156;2023-12-07T09:04:41;23.27;;;10.60;;
789;SDS011;378;48.844;9.156;2023-12-07T09:07:08;28.05;;;11.45;;
789;SDS011;378;48.844;9.156;2023-12-07T09:09:37;25.90;;;10.85;;
789;SDS011;378;48.844;9.156;2023-12-07T09:12:04;20.35;;;9.93;;
789;SDS011;378;48.844;9.156;2023-12-07T09:14:31;24.55;;;11.02;;
789;SDS011;378;48.844;9.156;2023-12-07T09:16:58;21.02;;;10.98;;
789;SDS011;378;48.844;9.156;2023-12-07T09:19:25;23.40;;;11.23;;
789;SDS011;378;48.844;9.156;2023-12-07T09:21:52;31.13;;;11.23;;
789;SDS011;378;48.844;9.156;2023-12-07T09:24:19;25.75;;;11.65;;
789;SDS011;378;48.844;9.156;2023-12-07T09:26:47;22.17;;;10.73;;
789;SDS011;378;48.844;9.156;2023-12-07T09:29:15;21.00;;;10.63;;
789;SDS011;378;48.844;9.156;2023-12-07T09:31:42;21.83;;;10.05;;
789;SDS011;378;48.844;9.156;2023-12-07T09:34:10;20.80;;;10.40;;
789;SDS011;378;48.844;9.156;2023-12-07T09:36:42;22.75;;;11.35;;
789;SDS011;378;48.844;9.156;2023-12-07T09:39:09;21.52;;;10.70;;
789;SDS011;378;48.844;9.156;2023-12-07T09:41:36;21.52;;;10.65;;
789;SDS011;378;48.844;9.156;2023-12-07T09:44:10;22.25;;;10.43;;
789;SDS011;378;48.844;9.156;2023-12-07T09:46:38;25.23;;;11.27;;
789;SDS011;378;48.844;9.156;2023-12-07T09:49:04;18.70;;;10.18;;
789;SDS011;378;48.844;9.156;2023-12-07T09:51:32;20.00;;;10.23;;
789;SDS011;378;48.844;9.156;2023-12-07T09:54:01;26.90;;;10.20;;
789;SDS011;378;48.844;9.156;2023-12-07T09:56:30;21.40;;;10.75;;
789;SDS011;378;48.844;9.156;2023-12-07T09:58:57;21.48;;;9.95;;
789;SDS011;378;48.844;9.156;2023-12-07T10:01:28;21.80;;;10.05;;
789;SDS011;378;48.844;9.156;2023-12-07T10:06:48;23.02;;;9.77;;
789;SDS011;378;48.844;9.156;2023-12-07T10:09:15;16.80;;;9.10;;
789;SDS011;378;48.844;9.156;2023-12-07T10:11:44;17.17;;;9.23;;
789;SDS011;378;48.844;9.156;2023-12-07T10:14:12;16.83;;;9.07;;
789;SDS011;378;48.844;9.156;2023-12-07T10:16:40;19.15;;;9.18;;
789;SDS011;378;48.844;9.156;2023-12-07T10:19:20;15.57;;;8.95;;
789;SDS011;378;48.844;9.156;2023-12-07T10:21:47;18.42;;;9.70;;
789;SDS011;378;48.844;9.156;2023-12-07T10:24:15;19.30;;;9.10;;
789;SDS011;378;48.844;9.156;2023-12-07T10:26:43;18.73;;;8.82;;
789;SDS011;378;48.844;9.156;2023-12-07T10:29:10;14.70;;;7.95;;
789;SDS011;378;48.844;9.156;2023-12-07T10:31:38;16.38;;;8.10;;
789;SDS011;378;48.844;9.156;2023-12-07T10:34:07;16.80;;;8.25;;
789;SDS011;378;48.844;9.156;2023-12-07T10:36:34;14.63;;;7.75;;
789;SDS011;378;48.844;9.156;2023-12-07T10:39:01;13.95;;;7.50;;
789;SDS011;378;48.844;9.156;2023-12-07T10:41:31;17.92;;;8.07;;
789;SDS011;378;48.844;9.156;2023-12-07T10:44:00;15.25;;;7.85;;
789;SDS011;378;48.844;9.156;2023-12-07T10:46:29;16.65;;;8.00;;
789;SDS011;378;48.844;9.156;2023-12-07T10:49:00;14.02;;;7.50;;
789;SDS011;378;48.844;9.156;2023-12-07T10:51:31;17.23;;;8.18;;
789;SDS011;378;48.844;9.156;2023-12-07T10:54:04;15.13;;;7.43;;
789;SDS011;378;48.844;9.156;2023-12-07T10:56:35;13.23;;;7.45;;
789;SDS011;378;48.844;9.156;2023-12-07T10:59:07;18.42;;;7.57;;
789;SDS011;378;48.844;9.156;2023-12-07T11:01:36;11.88;;;7.22;;
789;SDS011;378;48.844;9.156;2023-12-07T11:04:06;13.27;;;7.65;;
789;SDS011;378;48.844;9.156;2023-12-07T11:06:33;15.60;;;7.13;;
789;SDS011;378;48.844;9.156;2023-12-07T11:09:01;13.98;;;7.13;;
789;SDS011;378;48.844;9.156;2023-12-07T11:11:42;18.08;;;7.07;;
789;SDS011;378;48.844;9.156;2023-12-07T11:14:13;15.40;;;7.32;;
789;SDS011;378;48.844;9.156;2023-12-07T11:16:43;13.32;;;6.97;;
789;SDS011;378;48.844;9.156;2023-12-07T11:22:12;12.35;;;6.32;;
789;SDS011;378;48.844;9.156;2023-12-07T11:24:51;11.80;;;6.55;;
789;SDS011;378;48.844;9.156;2023-12-07T11:27:19;13.07;;;6.05;;
789;SDS011;378;48.844;9.156;2023-12-07T11:29:50;12.50;;;6.30;;
789;SDS011;378;48.844;9.156;2023-12-07T11:32:17;13.73;;;6.75;;
789;SDS011;378;48.844;9.156;2023-12-07T11:34:46;10.60;;;5.97;;
789;SDS011;378;48.844;9.156;2023-12-07T11:37:14;13.70;;;5.75;;
789;SDS011;378;48.844;9.156;2023-12-07T11:39:42;11.55;;;6.13;;
789;SDS011;378;48.844;9.156;2023-12-07T11:42:10;14.15;;;5.43;;
789;SDS011;378;48.844;9.156;2023-12-07T11:44:38;9.52;;;5.50;;
789;SDS011;378;48.844;9.156;2023-12-07T11:47:06;10.40;;;5.47;;
789;SDS011;378;48.844;9.156;2023-12-07T11:49:34;11.38;;;5.45;;
789;SDS011;378;48.844;9.156;2023-12-07T11:52:12;11.40;;;4.88;;
789;SDS011;378;48.844;9.156;2023-12-07T11:54:40;9.52;;;4.40;;
789;SDS011;378;48.844;9.156;2023-12-07T11:57:09;9.35;;;4.47;;
789;SDS011;378;48.844;9.156;2023-12-07T11:59:36;11.73;;;4.70;;
789;SDS011;378;48.844;9.156;2023-12-07T12:02:03;7.85;;;4.35;;
789;SDS011;378;48.844;9.156;2023-12-07T12:04:30;8.82;;;4.70;;
789;SDS011;378;48.844;9.156;2023-12-07T12:06:57;10.10;;;4.40;;
789;SDS011;378;48.844;9.156;2023-12-07T12:09:25;8.57;;;4.05;;
789;SDS011;378;48.844;9.156;2023-12-07T12:11:52;9.25;;;3.70;;
789;SDS011;378;48.844;9.156;2023-12-07T12:14:19;11.45;;;4.38;;
789;SDS011;378;48.844;9.156;2023-12-07T12:16:47;11.02;;;4.03;;
789;SDS011;378;48.844;9.156;2023-12-07T12:19:14;7.45;;;4.25;;
789;SDS011;378;48.844;9.156;2023-12-07T12:21:41;7.00;;;3.95;;
789;SDS011;378;48.844;9.156;2023-12-07T12:24:09;8.60;;;4.53;;
789;SDS011;378;48.844;9.156;2023-12-07T12:26:39;7.03;;;3.63;;
789;SDS011;378;48.844;9.156;2023-12-07T12:29:07;11.32;;;4.10;;
789;SDS011;378;48.844;9.156;2023-12-07T12:31:36;6.45;;;3.75;;
789;SDS011;378;48.844;9.156;2023-12-07T12:34:05;6.10;;;3.58;;
789;SDS011;378;48.844;9.156;2023-12-07T12:36:33;8.45;;;3.92;;
789;SDS011;378;48.844;9.156;2023-12-07T12:39:00;8.43;;;3.47;;
789;SDS011;378;48.844;9.156;2023-12-07T12:41:28;9.88;;;3.97;;
789;SDS011;378;48.844;9.156;2023-12-07T12:43:57;7.38;;;3.05;;
789;SDS011;378;48.844;9.156;2023-12-07T12:46:24;7.88;;;3.22;;
789;SDS011;378;48.844;9.156;2023-12-07T12:48:52;5.75;;;3.33;;
789;SDS011;378;48.844;9.156;2023-12-07T12:51:20;10.07;;;3.78;;
789;SDS011;378;48.844;9.156;2023-12-07T12:53:50;4.93;;;2.75;;
789;SDS011;378;48.844;9.156;2023-12-07T12:56:18;5.45;;;3.28;;
789;SDS011;378;48.844;9.156;2023-12-07T12:58:45;7.22;;;3.80;;
789;SDS011;378;48.844;9.156;2023-12-07T13:01:13;7.10;;;3.28;;
789;SDS011;378;48.844;9.156;2023-12-07T13:03:42;7.07;;;3.22;;
789;SDS011;378;48.844;9.156;2023-12-07T13:06:10;11.18;;;3.85;;
789;SDS011;378;48.844;9.156;2023-12-07T13:08:38;8.27;;;4.43;;
789;SDS011;378;48.844;9.156;2023-12-07T13:11:05;7.90;;;3.95;;
789;SDS011;378;48.844;9.156;2023-12-07T13:13:33;12.05;;;3.92;;
789;SDS011;378;48.844;9.156;2023-12-07T13:16:00;5.88;;;3.33;;
789;SDS011;378;48.844;9.156;2023-12-07T13:18:28;9.73;;;4.07;;
789;SDS011;378;48.844;9.156;2023-12-07T13:20:56;7.28;;;3.88;;
789;SDS011;378;48.844;9.156;2023-12-07T13:23:24;6.38;;;3.03;;
789;SDS011;378;48.844;9.156;2023-12-07T13:25:51;6.20;;;3.40;;
789;SDS011;378;48.844;9.156;2023-12-07T13:28:19;10.20;;;3.75;;
789;SDS011;378;48.844;9.156;2023-12-07T13:30:47;8.15;;;3.55;;
789;SDS011;378;48.844;9.156;2023-12-07T13:33:14;8.60;;;3.45;;
789;SDS011;378;48.844;9.156;2023-12-07T13:35:42;6.38;;;3.65;;
789;SDS011;378;48.844;9.156;2023-12-07T13:38:09;7.75;;;3.35;;
789;SDS011;378;48.844;9.156;2023-12-07T13:40:36;6.97;;;3.83;;
789;SDS011;378;48.844;9.156;2023-12-07T13:43:03;7.35;;;3.60;;
789;SDS011;378;48.844;9.156;2023-12-07T13:45:31;7.03;;;3.97;;
789;SDS011;378;48.844;9.156;2023-12-07T13:47:59;7.28;;;4.50;;
789;SDS011;378;48.844;9.156;2023-12-07T13:50:26;7.32;;;3.95;;
789;SDS011;378;48.844;9.156;2023-12-07T13:52:54;8.98;;;3.58;;
789;SDS011;378;48.844;9.156;2023-12-07T13:55:21;7.68;;;3.85;;
789;SDS011;378;48.844;9.156;2023-12-07T13:57:49;6.28;;;3.65;;
789;SDS011;378;48.844;9.156;2023-12-07T14:00:18;7.45;;;4.07;;
789;SDS011;378;48.844;9.156;2023-12-07T14:02:45;6.05;;;3.47;;
789;SDS011;378;48.844;9.156;2023-12-07T14:05:12;8.02;;;3.65;;
789;SDS011;378;48.844;9.156;2023-12-07T14:07:39;8.23;;;3.72;;
789;SDS011;378;48.844;9.156;2023-12-07T14:10:07;7.60;;;3.85;;
789;SDS011;378;48.844;9.156;2023-12-07T14:12:34;7.80;;;4.07;;
789;SDS011;378;48.844;9.156;2023-12-07T14:15:01;12.77;;;2.95;;
789;SDS011;378;48.844;9.156;2023-12-07T14:17:34;5.38;;;2.83;;
789;SDS011;378;48.844;9.156;2023-12-07T14:20:03;8.95;;;3.50;;
789;SDS011;378;48.844;9.156;2023-12-07T14:22:31;10.18;;;3.30;;
789;SDS011;378;48.844;9.156;2023-12-07T14:24:57;5.05;;;2.90;;
789;SDS011;378;48.844;9.156;2023-12-07T14:27:26;8.80;;;4.38;;
789;SDS011;378;48.844;9.156;2023-12-07T14:29:59;5.53;;;2.90;;
789;SDS011;378;48.844;9.156;2023-12-07T14:32:26;3.83;;;2.47;;
789;SDS011;378;48.844;9.156;2023-12-07T14:34:54;3.97;;;2.42;;
789;SDS011;378;48.844;9.156;2023-12-07T14:37:21;5.13;;;2.50;;
789;SDS011;378;48.844;9.156;2023-12-07T14:39:48;5.75;;;2.35;;
789;SDS011;378;48.844;9.156;2023-12-07T14:42:15;2.67;;;1.95;;
789;SDS011;378;48.844;9.156;2023-12-07T14:44:43;2.78;;;1.80;;
789;SDS011;378;48.844;9.156;2023-12-07T14:47:10;3.78;;;1.98;;
789;SDS011;378;48.844;9.156;2023-12-07T14:49:37;4.68;;;1.90;;
789;SDS011;378;48.844;9.156;2023-12-07T14:52:04;2.60;;;1.70;;
789;SDS011;378;48.844;9.156;2023-12-07T14:54:31;4.20;;;1.63;;
789;SDS011;378;48.844;9.156;2023-12-07T14:56:58;4.18;;;1.70;;
789;SDS011;378;48.844;9.156;2023-12-07T14:59:26;2.83;;;1.75;;
789;SDS011;378;48.844;9.156;2023-12-07T15:01:54;6.47;;;1.55;;
789;SDS011;378;48.844;9.156;2023-12-07T15:04:21;5.50;;;2.03;;
789;SDS011;378;48.844;9.156;2023-12-07T15:06:48;3.33;;;2.00;;
789;SDS011;378;48.844;9.156;2023-12-07T15:09:15;3.05;;;1.65;;
789;SDS011;378;48.844;9.156;2023-12-07T15:11:44;6.53;;;1.90;;
789;SDS011;378;48.844;9.156;2023-12-07T15:14:11;6.65;;;2.08;;
789;SDS011;378;48.844;9.156;2023-12-07T15:16:38;3.90;;;1.77;;
789;SDS011;378;48.844;9.156;2023-12-07T15:19:06;10.15;;;2.70;;
789;SDS011;378;48.844;9.156;2023-12-07T15:21:33;7.05;;;3.47;;
789;SDS011;378;48.844;9.156;2023-12-07T15:24:00;5.43;;;2.90;;
789;SDS011;378;48.844;9.156;2023-12-07T15:26:28;7.32;;;3.05;;
789;SDS011;378;48.844;9.156;2023-12-07T15:28:55;7.75;;;3.60;;
789;SDS011;378;48.844;9.156;2023-12-07T15:31:22;5.47;;;2.70;;
789;SDS011;378;48.844;9.156;2023-12-07T15:33:49;7.82;;;2.30;;
789;SDS011;378;48.844;9.156;2023-12-07T15:36:17;5.00;;;2.45;;
789;SDS011;378;48.844;9.156;2023-12-07T15:38:44;6.93;;;2.58;;
789;SDS011;378;48.844;9.156;2023-12-07T15:41:11;7.72;;;2.55;;
789;SDS011;378;48.844;9.156;2023-12-07T15:43:38;4.85;;;2.40;;
789;SDS011;378;48.844;9.156;2023-12-07T15:46:05;5.25;;;2.58;;
789;SDS011;378;48.844;9.156;2023-12-07T15:48:32;4.65;;;2.60;;
789;SDS011;378;48.844;9.156;2023-12-07T15:51:00;3.22;;;2.15;;
789;SDS011;378;48.844;9.156;2023-12-07T15:53:28;12.60;;;2.78;;
789;SDS011;378;48.844;9.156;2023-12-07T15:55:56;7.25;;;2.78;;
789;SDS011;378;48.844;9.156;2023-12-07T15:58:23;4.95;;;2.55;;
789;SDS011;378;48.844;9.156;2023-12-07T16:00:50;3.67;;;2.20;;
789;SDS011;378;48.844;9.156;2023-12-07T16:03:17;4.93;;;2.60;;
789;SDS011;378;48.844;9.156;2023-12-07T16:05:43;5.63;;;2.80;;
789;SDS011;378;48.844;9.156;2023-12-07T16:08:10;7.68;;;2.92;;
789;SDS011;378;48.844;9.156;2023-12-07T16:10:39;6.55;;;2.78;;
789;SDS011;378;48.844;9.156;2023-12-07T16:13:05;8.00;;;3.65;;
789;SDS011;378;48.844;9.156;2023-12-07T16:15:33;11.70;;;5.28;;
789;SDS011;378;48.844;9.156;2023-12-07T16:28:06;11.13;;;4.32;;
789;SDS011;378;48.844;9.156;2023-12-07T16:30:35;6.93;;;3.42;;
789;SDS011;378;48.844;9.156;2023-12-07T16:33:02;6.28;;;3.00;;
789;SDS011;378;48.844;9.156;2023-12-07T16:35:29;4.70;;;3.10;;
789;SDS011;378;48.844;9.156;2023-12-07T16:37:57;7.13;;;3.03;;
789;SDS011;378;48.844;9.156;2023-12-07T16:40:24;6.40;;;3.20;;
789;SDS011;378;48.844;9.156;2023-12-07T16:42:51;9.90;;;3.35;;
789;SDS011;378;48.844;9.156;2023-12-07T16:45:21;7.03;;;2.97;;
789;SDS011;378;48.844;9.156;2023-12-07T16:47:48;5.88;;;3.05;;
789;SDS011;378;48.844;9.156;2023-12-07T16:50:17;7.20;;;3.47;;
789;SDS011;378;48.844;9.156;2023-12-07T16:52:44;9.18;;;3.72;;
789;SDS011;378;48.844;9.156;2023-12-07T16:55:11;12.00;;;4.90;;
789;SDS011;378;48.844;9.156;2023-12-07T16:57:38;13.18;;;5.30;;
789;SDS011;378;48.844;9.156;2023-12-07T17:00:05;12.10;;;5.60;;
789;SDS011;378;48.844;9.156;2023-12-07T17:02:34;12.23;;;5.05;;
789;SDS011;378;48.844;9.156;2023-12-07T17:05:01;12.13;;;6.00;;
789;SDS011;378;48.844;9.156;2023-12-07T17:07:28;18.00;;;7.28;;
789;SDS011;378;48.844;9.156;2023-12-07T17:09:58;20.73;;;8.35;;
789;SDS011;378;48.844;9.156;2023-12-07T17:12:25;18.13;;;6.85;;
789;SDS011;378;48.844;9.156;2023-12-07T17:14:52;20.45;;;7.45;;
789;SDS011;378;48.844;9.156;2023-12-07T17:17:19;17.38;;;7.10;;
789;SDS011;378;48.844;9.156;2023-12-07T17:19:47;13.57;;;6.30;;
789;SDS011;378;48.844;9.156;2023-12-07T17:22:14;11.38;;;5.85;;
789;SDS011;378;48.844;9.156;2023-12-07T17:24:40;12.88;;;5.40;;
789;SDS011;378;48.844;9.156;2023-12-07T17:32:20;10.65;;;5.22;;
789;SDS011;378;48.844;9.156;2023-12-07T17:37:56;9.02;;;4.75;;
789;SDS011;378;48.844;9.156;2023-12-07T17:40:43;13.27;;;5.50;;
789;SDS011;378;48.844;9.156;2023-12-07T17:43:22;9.10;;;5.30;;
789;SDS011;378;48.844;9.156;2023-12-07T17:45:48;10.63;;;5.50;;
789;SDS011;378;48.844;9.156;2023-12-07T17:48:16;12.35;;;6.65;;